sensor_id;sensor_type;location;lat;lon;timestamp;P1;durP1;ratioP1;P2;durP2;ratioP2
36009;SDS011;22076;52.182;5.404;2023-01-06T00:01:59;10.05;;;4.28;;
36009;SDS011;22076;52.182;5.404;2023-01-06T00:04:26;12.20;;;4.10;;
36009;SDS011;22076;52.182;5.404;2023-01-06T00:06:54;12.25;;;4.63;;
36009;SDS011;22076;52.182;5.404;2023-01-06T00:09:21;10.82;;;3.85;;
36009;SDS011;22076;52.182;5.404;2023-01-06T00:11:47;8.80;;;3.88;;
36009;SDS011;22076;52.182;5.404;2023-01-06T00:14:14;11.60;;;4.05;;
36009;SDS011;22076;52.182;5.404;2023-01-06T00:16:40;10.82;;;4.03;;
36009;SDS011;22076;52.182;5.404;2023-01-06T00:19:08;7.43;;;3.05;;
36009;SDS011;22076;52.182;5.404;2023-01-06T00:21:35;10.63;;;3.15;;
36009;SDS011;22076;52.182;5.404;2023-01-06T00:24:04;4.82;;;2.85;;
36009;SDS011;22076;52.182;5.404;2023-01-06T00:26:30;10.25;;;3.10;;
36009;SDS011;22076;52.182;5.404;2023-01-06T00:28:57;10.15;;;2.95;;
36009;SDS011;22076;52.182;5.404;2023-01-06T00:31:24;10.95;;;3.30;;
36009;SDS011;22076;52.182;5.404;2023-01-06T00:33:50;7.47;;;2.65;;
36009;SDS011;22076;52.182;5.404;2023-01-06T00:36:17;9.50;;;3.20;;
36009;SDS011;22076;52.182;5.404;2023-01-06T00:38:47;6.05;;;2.72;;
36009;SDS011;22076;52.182;5.404;2023-01-06T00:41:15;8.90;;;2.50;;
36009;SDS011;22076;52.182;5.404;2023-01-06T00:44:00;8.13;;;2.63;;
36009;SDS011;22076;52.182;5.404;2023-01-06T00:46:27;7.22;;;3.80;;
36009;SDS011;22076;52.182;5.404;2023-01-06T00:48:54;7.28;;;3.42;;
36009;SDS011;22076;52.182;5.404;2023-01-06T00:51:20;6.90;;;3.65;;
36009;SDS011;22076;52.182;5.404;2023-01-06T00:53:47;8.93;;;4.10;;
36009;SDS011;22076;52.182;5.404;2023-01-06T00:56:15;8.98;;;3.58;;
36009;SDS011;22076;52.182;5.404;2023-01-06T00:58:42;8.27;;;4.43;;
36009;SDS011;22076;52.182;5.404;2023-01-06T01:01:08;14.38;;;5.30;;
36009;SDS011;22076;52.182;5.404;2023-01-06T01:03:36;11.63;;;4.93;;
36009;SDS011;22076;52.182;5.404;2023-01-06T01:06:04;8.13;;;4.80;;
36009;SDS011;22076;52.182;5.404;2023-01-06T01:08:32;13.85;;;7.13;;
36009;SDS011;22076;52.182;5.404;2023-01-06T01:11:01;8.88;;;5.10;;
36009;SDS011;22076;52.182;5.404;2023-01-06T01:13:29;12.75;;;6.65;;
36009;SDS011;22076;52.182;5.404;2023-01-06T01:15:56;15.48;;;6.47;;
36009;SDS011;22076;52.182;5.404;2023-01-06T01:18:22;15.05;;;6.85;;
36009;SDS011;22076;52.182;5.404;2023-01-06T01:20:49;10.98;;;6.07;;
36009;SDS011;22076;52.182;5.404;2023-01-06T01:23:15;10.15;;;6.40;;
36009;SDS011;22076;52.182;5.404;2023-01-06T01:25:42;9.57;;;4.90;;
36009;SDS011;22076;52.182;5.404;2023-01-06T01:28:08;9.93;;;5.80;;
36009;SDS011;22076;52.182;5.404;2023-01-06T01:30:37;9.30;;;5.93;;
36009;SDS011;22076;52.182;5.404;2023-01-06T01:33:03;12.77;;;5.38;;
36009;SDS011;22076;52.182;5.404;2023-01-06T01:35:30;8.65;;;4.53;;
36009;SDS011;22076;52.182;5.404;2023-01-06T01:37:56;9.15;;;4.70;;
36009;SDS011;22076;52.182;5.404;2023-01-06T01:40:23;10.07;;;5.30;;
36009;SDS011;22076;52.182;5.404;2023-01-06T01:42:50;8.85;;;4.35;;
36009;SDS011;22076;52.182;5.404;2023-01-06T01:45:19;10.13;;;5.07;;
36009;SDS011;22076;52.182;5.404;2023-01-06T01:47:50;9.75;;;4.30;;
36009;SDS011;22076;52.182;5.404;2023-01-06T01:50:26;6.53;;;3.55;;
36009;SDS011;22076;52.182;5.404;2023-01-06T01:52:56;8.57;;;4.13;;
36009;SDS011;22076;52.182;5.404;2023-01-06T01:55:26;11.45;;;3.83;;
36009;SDS011;22076;52.182;5.404;2023-01-06T01:57:53;8.25;;;3.70;;
36009;SDS011;22076;52.182;5.404;2023-01-06T02:00:23;7.10;;;4.20;;
36009;SDS011;22076;52.182;5.404;2023-01-06T02:02:51;8.00;;;4.30;;
36009;SDS011;22076;52.182;5.404;2023-01-06T02:05:19;5.78;;;3.50;;
36009;SDS011;22076;52.182;5.404;2023-01-06T02:07:47;7.68;;;3.65;;
36009;SDS011;22076;52.182;5.404;2023-01-06T02:10:14;8.95;;;3.67;;
36009;SDS011;22076;52.182;5.404;2023-01-06T02:12:43;6.95;;;3.90;;
36009;SDS011;22076;52.182;5.404;2023-01-06T02:15:18;7.05;;;4.10;;
36009;SDS011;22076;52.182;5.404;2023-01-06T02:17:54;10.13;;;3.83;;
36009;SDS011;22076;52.182;5.404;2023-01-06T02:23:31;5.22;;;3.47;;
36009;SDS011;22076;52.182;5.404;2023-01-06T02:32:24;9.07;;;3.47;;
36009;SDS011;22076;52.182;5.404;2023-01-06T02:35:01;7.25;;;4.10;;
36009;SDS011;22076;52.182;5.404;2023-01-06T02:37:40;5.78;;;3.80;;
36009;SDS011;22076;52.182;5.404;2023-01-06T02:40:17;8.80;;;3.67;;
36009;SDS011;22076;52.182;5.404;2023-01-06T02:42:51;7.53;;;3.28;;
36009;SDS011;22076;52.182;5.404;2023-01-06T02:45:27;10.27;;;4.07;;
36009;SDS011;22076;52.182;5.404;2023-01-06T02:47:59;8.38;;;3.03;;
36009;SDS011;22076;52.182;5.404;2023-01-06T02:50:31;11.55;;;3.85;;
36009;SDS011;22076;52.182;5.404;2023-01-06T02:53:02;8.60;;;3.38;;
36009;SDS011;22076;52.182;5.404;2023-01-06T02:55:34;8.75;;;3.38;;
36009;SDS011;22076;52.182;5.404;2023-01-06T02:58:03;6.38;;;2.88;;
36009;SDS011;22076;52.182;5.404;2023-01-06T03:00:32;6.25;;;3.25;;
36009;SDS011;22076;52.182;5.404;2023-01-06T03:03:01;6.55;;;3.35;;
36009;SDS011;22076;52.182;5.404;2023-01-06T03:05:31;7.32;;;3.30;;
36009;SDS011;22076;52.182;5.404;2023-01-06T03:07:59;7.53;;;2.88;;
36009;SDS011;22076;52.182;5.404;2023-01-06T03:10:29;5.38;;;3.05;;
36009;SDS011;22076;52.182;5.404;2023-01-06T03:12:59;8.05;;;3.05;;
36009;SDS011;22076;52.182;5.404;2023-01-06T03:15:28;7.78;;;2.88;;
36009;SDS011;22076;52.182;5.404;2023-01-06T03:17:55;9.05;;;3.20;;
36009;SDS011;22076;52.182;5.404;2023-01-06T03:20:23;4.65;;;3.03;;
36009;SDS011;22076;52.182;5.404;2023-01-06T03:22:49;6.43;;;2.92;;
36009;SDS011;22076;52.182;5.404;2023-01-06T03:25:16;7.85;;;3.22;;
36009;SDS011;22076;52.182;5.404;2023-01-06T03:27:43;11.57;;;3.67;;
36009;SDS011;22076;52.182;5.404;2023-01-06T03:30:10;6.72;;;3.45;;
36009;SDS011;22076;52.182;5.404;2023-01-06T03:32:39;9.73;;;3.97;;
36009;SDS011;22076;52.182;5.404;2023-01-06T03:35:15;9.10;;;3.75;;
36009;SDS011;22076;52.182;5.404;2023-01-06T03:37:49;10.20;;;3.75;;
36009;SDS011;22076;52.182;5.404;2023-01-06T03:40:21;10.65;;;4.13;;
36009;SDS011;22076;52.182;5.404;2023-01-06T03:42:54;8.80;;;3.95;;
36009;SDS011;22076;52.182;5.404;2023-01-06T03:45:47;9.57;;;4.05;;
36009;SDS011;22076;52.182;5.404;2023-01-06T03:48:19;13.98;;;4.72;;
36009;SDS011;22076;52.182;5.404;2023-01-06T03:50:49;12.00;;;3.67;;
36009;SDS011;22076;52.182;5.404;2023-01-06T03:53:25;8.70;;;3.10;;
36009;SDS011;22076;52.182;5.404;2023-01-06T03:55:59;7.20;;;3.47;;
36009;SDS011;22076;52.182;5.404;2023-01-06T03:58:31;8.30;;;3.25;;
36009;SDS011;22076;52.182;5.404;2023-01-06T04:00:58;7.32;;;3.30;;
36009;SDS011;22076;52.182;5.404;2023-01-06T04:03:25;7.93;;;2.80;;
36009;SDS011;22076;52.182;5.404;2023-01-06T04:05:51;6.40;;;2.70;;
36009;SDS011;22076;52.182;5.404;2023-01-06T04:08:19;6.18;;;2.75;;
36009;SDS011;22076;52.182;5.404;2023-01-06T04:10:47;5.13;;;2.20;;
36009;SDS011;22076;52.182;5.404;2023-01-06T04:13:13;6.07;;;2.40;;
36009;SDS011;22076;52.182;5.404;2023-01-06T04:15:39;4.40;;;2.20;;
36009;SDS011;22076;52.182;5.404;2023-01-06T04:18:06;8.77;;;2.40;;
36009;SDS011;22076;52.182;5.404;2023-01-06T04:20:33;4.93;;;2.50;;
36009;SDS011;22076;52.182;5.404;2023-01-06T04:22:59;3.58;;;1.98;;
36009;SDS011;22076;52.182;5.404;2023-01-06T04:25:26;7.57;;;2.40;;
36009;SDS011;22076;52.182;5.404;2023-01-06T04:27:54;5.10;;;2.22;;
36009;SDS011;22076;52.182;5.404;2023-01-06T04:30:21;6.53;;;2.50;;
36009;SDS011;22076;52.182;5.404;2023-01-06T04:32:47;8.77;;;2.75;;
36009;SDS011;22076;52.182;5.404;2023-01-06T04:35:14;9.73;;;2.65;;
36009;SDS011;22076;52.182;5.404;2023-01-06T04:37:41;5.53;;;3.17;;
36009;SDS011;22076;52.182;5.404;2023-01-06T04:40:08;6.40;;;2.78;;
36009;SDS011;22076;52.182;5.404;2023-01-06T04:42:35;8.93;;;2.33;;
36009;SDS011;22076;52.182;5.404;2023-01-06T04:45:17;4.60;;;2.53;;
36009;SDS011;22076;52.182;5.404;2023-01-06T04:47:43;3.42;;;2.25;;
36009;SDS011;22076;52.182;5.404;2023-01-06T04:50:10;5.47;;;3.00;;
36009;SDS011;22076;52.182;5.404;2023-01-06T04:52:36;8.43;;;3.45;;
36009;SDS011;22076;52.182;5.404;2023-01-06T04:55:03;7.18;;;3.22;;
36009;SDS011;22076;52.182;5.404;2023-01-06T04:57:30;6.18;;;3.20;;
36009;SDS011;22076;52.182;5.404;2023-01-06T04:59:59;7.63;;;2.97;;
36009;SDS011;22076;52.182;5.404;2023-01-06T05:02:26;7.07;;;2.42;;
36009;SDS011;22076;52.182;5.404;2023-01-06T05:04:53;5.85;;;2.60;;
36009;SDS011;22076;52.182;5.404;2023-01-06T05:07:19;6.32;;;2.67;;
36009;SDS011;22076;52.182;5.404;2023-01-06T05:09:46;6.93;;;3.33;;
36009;SDS011;22076;52.182;5.404;2023-01-06T05:12:12;4.60;;;2.35;;
36009;SDS011;22076;52.182;5.404;2023-01-06T05:14:39;6.95;;;3.17;;
36009;SDS011;22076;52.182;5.404;2023-01-06T05:17:06;4.65;;;2.45;;
36009;SDS011;22076;52.182;5.404;2023-01-06T05:19:34;7.70;;;2.40;;
36009;SDS011;22076;52.182;5.404;2023-01-06T05:22:00;9.05;;;2.47;;
36009;SDS011;22076;52.182;5.404;2023-01-06T05:24:28;4.07;;;2.60;;
36009;SDS011;22076;52.182;5.404;2023-01-06T05:26:54;3.55;;;2.42;;
36009;SDS011;22076;52.182;5.404;2023-01-06T05:29:21;4.80;;;2.80;;
36009;SDS011;22076;52.182;5.404;2023-01-06T05:31:47;7.93;;;2.58;;
36009;SDS011;22076;52.182;5.404;2023-01-06T05:34:14;5.65;;;2.78;;
36009;SDS011;22076;52.182;5.404;2023-01-06T05:36:42;7.03;;;3.35;;
36009;SDS011;22076;52.182;5.404;2023-01-06T05:39:08;3.80;;;2.67;;
36009;SDS011;22076;52.182;5.404;2023-01-06T05:41:35;5.38;;;2.85;;
36009;SDS011;22076;52.182;5.404;2023-01-06T05:44:02;4.82;;;3.03;;
36009;SDS011;22076;52.182;5.404;2023-01-06T05:46:28;4.57;;;2.95;;
36009;SDS011;22076;52.182;5.404;2023-01-06T05:48:55;5.50;;;2.63;;
36009;SDS011;22076;52.182;5.404;2023-01-06T05:51:22;4.07;;;2.83;;
36009;SDS011;22076;52.182;5.404;2023-01-06T05:53:49;7.40;;;2.90;;
36009;SDS011;22076;52.182;5.404;2023-01-06T05:56:16;4.32;;;3.13;;
36009;SDS011;22076;52.182;5.404;2023-01-06T05:58:44;5.38;;;2.38;;
36009;SDS011;22076;52.182;5.404;2023-01-06T06:01:15;5.68;;;3.03;;
36009;SDS011;22076;52.182;5.404;2023-01-06T06:03:42;3.67;;;2.90;;
36009;SDS011;22076;52.182;5.404;2023-01-06T06:06:08;4.97;;;2.90;;
36009;SDS011;22076;52.182;5.404;2023-01-06T06:08:35;4.75;;;3.00;;
36009;SDS011;22076;52.182;5.404;2023-01-06T06:11:03;4.75;;;3.30;;
36009;SDS011;22076;52.182;5.404;2023-01-06T06:13:31;3.38;;;3.00;;
36009;SDS011;22076;52.182;5.404;2023-01-06T06:16:04;5.18;;;2.78;;
36009;SDS011;22076;52.182;5.404;2023-01-06T06:18:31;7.70;;;2.90;;
36009;SDS011;22076;52.182;5.404;2023-01-06T06:21:00;5.43;;;2.78;;
36009;SDS011;22076;52.182;5.404;2023-01-06T06:23:27;5.75;;;2.17;;
36009;SDS011;22076;52.182;5.404;2023-01-06T06:25:54;6.40;;;2.67;;
36009;SDS011;22076;52.182;5.404;2023-01-06T06:28:22;3.17;;;2.53;;
36009;SDS011;22076;52.182;5.404;2023-01-06T06:30:48;4.13;;;2.50;;
36009;SDS011;22076;52.182;5.404;2023-01-06T06:33:15;4.10;;;2.95;;
36009;SDS011;22076;52.182;5.404;2023-01-06T06:35:41;6.50;;;2.88;;
36009;SDS011;22076;52.182;5.404;2023-01-06T06:38:08;3.20;;;2.67;;
36009;SDS011;22076;52.182;5.404;2023-01-06T06:40:34;5.78;;;2.80;;
36009;SDS011;22076;52.182;5.404;2023-01-06T06:43:01;7.65;;;2.90;;
36009;SDS011;22076;52.182;5.404;2023-01-06T06:45:30;4.40;;;2.88;;
36009;SDS011;22076;52.182;5.404;2023-01-06T06:47:56;3.33;;;2.60;;
36009;SDS011;22076;52.182;5.404;2023-01-06T06:50:23;4.45;;;3.25;;
36009;SDS011;22076;52.182;5.404;2023-01-06T06:52:49;4.38;;;2.85;;
36009;SDS011;22076;52.182;5.404;2023-01-06T06:55:16;2.97;;;2.60;;
36009;SDS011;22076;52.182;5.404;2023-01-06T06:57:43;4.22;;;2.83;;
36009;SDS011;22076;52.182;5.404;2023-01-06T07:00:10;6.75;;;3.80;;
36009;SDS011;22076;52.182;5.404;2023-01-06T07:02:38;6.32;;;3.38;;
36009;SDS011;22076;52.182;5.404;2023-01-06T07:05:05;4.97;;;2.70;;
36009;SDS011;22076;52.182;5.404;2023-01-06T07:07:32;7.53;;;3.88;;
36009;SDS011;22076;52.182;5.404;2023-01-06T07:09:58;6.80;;;4.82;;
36009;SDS011;22076;52.182;5.404;2023-01-06T07:12:25;4.97;;;3.97;;
36009;SDS011;22076;52.182;5.404;2023-01-06T07:14:51;9.10;;;3.42;;
36009;SDS011;22076;52.182;5.404;2023-01-06T07:17:18;7.47;;;4.40;;
36009;SDS011;22076;52.182;5.404;2023-01-06T07:19:46;6.72;;;4.57;;
36009;SDS011;22076;52.182;5.404;2023-01-06T07:22:12;5.82;;;4.30;;
36009;SDS011;22076;52.182;5.404;2023-01-06T07:24:39;6.53;;;3.53;;
36009;SDS011;22076;52.182;5.404;2023-01-06T07:27:05;7.03;;;3.70;;
36009;SDS011;22076;52.182;5.404;2023-01-06T07:29:32;4.60;;;3.10;;
36009;SDS011;22076;52.182;5.404;2023-01-06T07:31:58;6.10;;;3.42;;
36009;SDS011;22076;52.182;5.404;2023-01-06T07:34:25;4.10;;;3.65;;
36009;SDS011;22076;52.182;5.404;2023-01-06T07:36:53;5.03;;;3.63;;
36009;SDS011;22076;52.182;5.404;2023-01-06T07:40:03;6.72;;;3.80;;
36009;SDS011;22076;52.182;5.404;2023-01-06T07:42:30;4.85;;;3.95;;
36009;SDS011;22076;52.182;5.404;2023-01-06T07:44:56;6.00;;;3.85;;
36009;SDS011;22076;52.182;5.404;2023-01-06T07:47:23;6.15;;;3.78;;
36009;SDS011;22076;52.182;5.404;2023-01-06T07:49:50;4.32;;;3.83;;
36009;SDS011;22076;52.182;5.404;2023-01-06T07:52:16;5.80;;;4.18;;
36009;SDS011;22076;52.182;5.404;2023-01-06T07:54:43;8.20;;;4.75;;
36009;SDS011;22076;52.182;5.404;2023-01-06T07:57:11;7.55;;;4.55;;
36009;SDS011;22076;52.182;5.404;2023-01-06T07:59:37;5.05;;;3.53;;
36009;SDS011;22076;52.182;5.404;2023-01-06T08:02:04;9.93;;;4.50;;
36009;SDS011;22076;52.182;5.404;2023-01-06T08:04:33;6.10;;;3.90;;
36009;SDS011;22076;52.182;5.404;2023-01-06T08:06:59;9.25;;;4.18;;
36009;SDS011;22076;52.182;5.404;2023-01-06T08:09:26;6.13;;;4.40;;
36009;SDS011;22076;52.182;5.404;2023-01-06T08:11:52;6.13;;;4.45;;
36009;SDS011;22076;52.182;5.404;2023-01-06T08:14:20;8.27;;;4.45;;
36009;SDS011;22076;52.182;5.404;2023-01-06T08:16:47;11.25;;;5.00;;
36009;SDS011;22076;52.182;5.404;2023-01-06T08:19:13;11.88;;;5.13;;
36009;SDS011;22076;52.182;5.404;2023-01-06T08:21:40;8.90;;;4.85;;
36009;SDS011;22076;52.182;5.404;2023-01-06T08:24:07;15.52;;;5.10;;
36009;SDS011;22076;52.182;5.404;2023-01-06T08:26:34;13.88;;;6.13;;
36009;SDS011;22076;52.182;5.404;2023-01-06T08:29:00;9.57;;;4.63;;
36009;SDS011;22076;52.182;5.404;2023-01-06T08:31:29;10.38;;;4.18;;
36009;SDS011;22076;52.182;5.404;2023-01-06T08:33:56;10.45;;;4.50;;
36009;SDS011;22076;52.182;5.404;2023-01-06T08:36:23;13.15;;;4.50;;
36009;SDS011;22076;52.182;5.404;2023-01-06T08:38:50;12.35;;;4.28;;
36009;SDS011;22076;52.182;5.404;2023-01-06T08:41:17;8.35;;;4.25;;
36009;SDS011;22076;52.182;5.404;2023-01-06T08:43:45;8.30;;;3.42;;
36009;SDS011;22076;52.182;5.404;2023-01-06T08:46:12;6.78;;;3.72;;
36009;SDS011;22076;52.182;5.404;2023-01-06T08:48:41;10.20;;;3.65;;
36009;SDS011;22076;52.182;5.404;2023-01-06T08:51:10;8.07;;;2.97;;
36009;SDS011;22076;52.182;5.404;2023-01-06T08:53:38;8.88;;;3.08;;
36009;SDS011;22076;52.182;5.404;2023-01-06T08:56:10;9.48;;;3.25;;
36009;SDS011;22076;52.182;5.404;2023-01-06T08:58:37;9.88;;;3.38;;
36009;SDS011;22076;52.182;5.404;2023-01-06T09:01:04;7.90;;;2.90;;
36009;SDS011;22076;52.182;5.404;2023-01-06T09:03:30;11.90;;;3.17;;
36009;SDS011;22076;52.182;5.404;2023-01-06T09:05:58;13.68;;;3.42;;
36009;SDS011;22076;52.182;5.404;2023-01-06T09:08:25;13.93;;;3.22;;
36009;SDS011;22076;52.182;5.404;2023-01-06T09:10:52;11.10;;;3.30;;
36009;SDS011;22076;52.182;5.404;2023-01-06T09:13:18;13.43;;;2.83;;
36009;SDS011;22076;52.182;5.404;2023-01-06T09:15:45;16.92;;;2.72;;
36009;SDS011;22076;52.182;5.404;2023-01-06T09:18:13;13.30;;;2.67;;
36009;SDS011;22076;52.182;5.404;2023-01-06T09:20:39;10.68;;;2.90;;
36009;SDS011;22076;52.182;5.404;2023-01-06T09:23:08;14.18;;;2.28;;
36009;SDS011;22076;52.182;5.404;2023-01-06T09:25:34;8.00;;;2.38;;
36009;SDS011;22076;52.182;5.404;2023-01-06T09:28:01;11.60;;;2.30;;
36009;SDS011;22076;52.182;5.404;2023-01-06T09:30:27;12.45;;;2.92;;
36009;SDS011;22076;52.182;5.404;2023-01-06T09:32:54;6.25;;;2.40;;
36009;SDS011;22076;52.182;5.404;2023-01-06T09:37:01;11.73;;;2.30;;
36009;SDS011;22076;52.182;5.404;2023-01-06T09:39:27;10.75;;;1.90;;
36009;SDS011;22076;52.182;5.404;2023-01-06T09:44:45;9.82;;;2.55;;
36009;SDS011;22076;52.182;5.404;2023-01-06T09:47:14;5.57;;;1.98;;
36009;SDS011;22076;52.182;5.404;2023-01-06T09:49:45;7.80;;;1.70;;
36009;SDS011;22076;52.182;5.404;2023-01-06T09:52:17;8.80;;;2.13;;
36009;SDS011;22076;52.182;5.404;2023-01-06T09:54:51;9.57;;;1.58;;
36009;SDS011;22076;52.182;5.404;2023-01-06T09:57:20;7.82;;;1.75;;
36009;SDS011;22076;52.182;5.404;2023-01-06T09:59:49;11.02;;;1.83;;
36009;SDS011;22076;52.182;5.404;2023-01-06T10:02:20;7.32;;;1.77;;
36009;SDS011;22076;52.182;5.404;2023-01-06T10:04:47;9.05;;;1.80;;
36009;SDS011;22076;52.182;5.404;2023-01-06T10:07:15;9.48;;;1.90;;
36009;SDS011;22076;52.182;5.404;2023-01-06T10:09:48;8.80;;;1.63;;
36009;SDS011;22076;52.182;5.404;2023-01-06T10:12:22;10.32;;;1.48;;
36009;SDS011;22076;52.182;5.404;2023-01-06T10:17:36;12.10;;;1.80;;
36009;SDS011;22076;52.182;5.404;2023-01-06T10:20:27;10.45;;;1.83;;
36009;SDS011;22076;52.182;5.404;2023-01-06T10:23:01;7.32;;;1.60;;
36009;SDS011;22076;52.182;5.404;2023-01-06T10:25:32;9.02;;;2.33;;
36009;SDS011;22076;52.182;5.404;2023-01-06T10:28:00;5.88;;;1.60;;
36009;SDS011;22076;52.182;5.404;2023-01-06T10:30:31;6.43;;;1.42;;
36009;SDS011;22076;52.182;5.404;2023-01-06T10:33:01;9.85;;;1.42;;
36009;SDS011;22076;52.182;5.404;2023-01-06T10:35:28;10.15;;;1.67;;
36009;SDS011;22076;52.182;5.404;2023-01-06T10:37:54;4.50;;;1.15;;
36009;SDS011;22076;52.182;5.404;2023-01-06T10:40:24;9.57;;;1.52;;
36009;SDS011;22076;52.182;5.404;2023-01-06T10:42:53;10.50;;;1.65;;
36009;SDS011;22076;52.182;5.404;2023-01-06T10:45:21;7.35;;;1.48;;
36009;SDS011;22076;52.182;5.404;2023-01-06T10:47:48;8.73;;;1.73;;
36009;SDS011;22076;52.182;5.404;2023-01-06T10:50:16;9.60;;;1.50;;
36009;SDS011;22076;52.182;5.404;2023-01-06T10:52:44;4.63;;;1.38;;
36009;SDS011;22076;52.182;5.404;2023-01-06T10:55:25;8.48;;;1.88;;
36009;SDS011;22076;52.182;5.404;2023-01-06T10:57:59;14.63;;;1.65;;
36009;SDS011;22076;52.182;5.404;2023-01-06T11:03:01;7.22;;;1.20;;
36009;SDS011;22076;52.182;5.404;2023-01-06T11:05:29;5.60;;;1.40;;
36009;SDS011;22076;52.182;5.404;2023-01-06T11:08:01;8.52;;;1.50;;
36009;SDS011;22076;52.182;5.404;2023-01-06T11:10:31;4.90;;;1.57;;
36009;SDS011;22076;52.182;5.404;2023-01-06T11:13:01;3.22;;;1.23;;
36009;SDS011;22076;52.182;5.404;2023-01-06T11:15:33;7.93;;;1.35;;
36009;SDS011;22076;52.182;5.404;2023-01-06T11:18:02;8.45;;;1.25;;
36009;SDS011;22076;52.182;5.404;2023-01-06T11:20:30;5.05;;;1.05;;
36009;SDS011;22076;52.182;5.404;2023-01-06T11:23:11;11.50;;;1.45;;
36009;SDS011;22076;52.182;5.404;2023-01-06T11:25:41;7.45;;;1.33;;
36009;SDS011;22076;52.182;5.404;2023-01-06T11:28:12;10.18;;;1.30;;
36009;SDS011;22076;52.182;5.404;2023-01-06T11:30:43;8.70;;;1.60;;
36009;SDS011;22076;52.182;5.404;2023-01-06T11:33:14;5.57;;;1.10;;
36009;SDS011;22076;52.182;5.404;2023-01-06T11:35:42;10.15;;;1.55;;
36009;SDS011;22076;52.182;5.404;2023-01-06T11:38:10;3.97;;;1.02;;
36009;SDS011;22076;52.182;5.404;2023-01-06T11:40:38;6.13;;;1.60;;
36009;SDS011;22076;52.182;5.404;2023-01-06T11:43:07;5.38;;;1.20;;
36009;SDS011;22076;52.182;5.404;2023-01-06T11:45:36;8.45;;;1.55;;
36009;SDS011;22076;52.182;5.404;2023-01-06T11:48:04;7.15;;;1.63;;
36009;SDS011;22076;52.182;5.404;2023-01-06T11:50:34;6.18;;;1.00;;
36009;SDS011;22076;52.182;5.404;2023-01-06T11:53:02;6.90;;;1.27;;
36009;SDS011;22076;52.182;5.404;2023-01-06T11:55:29;5.30;;;1.00;;
36009;SDS011;22076;52.182;5.404;2023-01-06T11:57:58;5.70;;;1.45;;
36009;SDS011;22076;52.182;5.404;2023-01-06T12:00:35;10.70;;;1.70;;
36009;SDS011;22076;52.182;5.404;2023-01-06T12:03:07;7.53;;;1.73;;
36009;SDS011;22076;52.182;5.404;2023-01-06T12:05:42;5.07;;;1.40;;
36009;SDS011;22076;52.182;5.404;2023-01-06T12:08:13;6.50;;;1.17;;
36009;SDS011;22076;52.182;5.404;2023-01-06T12:10:43;5.75;;;1.30;;
36009;SDS011;22076;52.182;5.404;2023-01-06T12:13:12;5.13;;;1.40;;
36009;SDS011;22076;52.182;5.404;2023-01-06T12:15:40;5.50;;;1.58;;
36009;SDS011;22076;52.182;5.404;2023-01-06T12:18:10;4.38;;;1.27;;
36009;SDS011;22076;52.182;5.404;2023-01-06T12:20:39;12.15;;;1.58;;
36009;SDS011;22076;52.182;5.404;2023-01-06T12:23:07;7.95;;;1.90;;
36009;SDS011;22076;52.182;5.404;2023-01-06T12:25:37;4.40;;;1.30;;
36009;SDS011;22076;52.182;5.404;2023-01-06T12:28:05;4.72;;;1.20;;
36009;SDS011;22076;52.182;5.404;2023-01-06T12:30:33;5.78;;;1.15;;
36009;SDS011;22076;52.182;5.404;2023-01-06T12:33:04;5.55;;;1.42;;
36009;SDS011;22076;52.182;5.404;2023-01-06T12:35:35;7.28;;;1.73;;
36009;SDS011;22076;52.182;5.404;2023-01-06T12:38:03;6.70;;;1.35;;
36009;SDS011;22076;52.182;5.404;2023-01-06T12:40:38;5.63;;;1.30;;
36009;SDS011;22076;52.182;5.404;2023-01-06T12:43:10;8.50;;;1.50;;
36009;SDS011;22076;52.182;5.404;2023-01-06T12:45:41;6.00;;;1.23;;
36009;SDS011;22076;52.182;5.404;2023-01-06T12:48:12;9.02;;;1.70;;
36009;SDS011;22076;52.182;5.404;2023-01-06T12:50:45;4.07;;;1.23;;
36009;SDS011;22076;52.182;5.404;2023-01-06T12:53:17;7.70;;;2.08;;
36009;SDS011;22076;52.182;5.404;2023-01-06T12:55:48;7.65;;;1.40;;
36009;SDS011;22076;52.182;5.404;2023-01-06T12:58:21;6.55;;;1.45;;
36009;SDS011;22076;52.182;5.404;2023-01-06T13:00:52;5.72;;;1.30;;
36009;SDS011;22076;52.182;5.404;2023-01-06T13:03:28;6.03;;;1.30;;
36009;SDS011;22076;52.182;5.404;2023-01-06T13:06:12;3.55;;;1.45;;
36009;SDS011;22076;52.182;5.404;2023-01-06T13:08:58;6.63;;;1.35;;
36009;SDS011;22076;52.182;5.404;2023-01-06T13:11:33;10.23;;;1.65;;
36009;SDS011;22076;52.182;5.404;2023-01-06T13:14:09;7.72;;;1.33;;
36009;SDS011;22076;52.182;5.404;2023-01-06T13:16:38;5.30;;;1.40;;
36009;SDS011;22076;52.182;5.404;2023-01-06T13:19:14;6.18;;;1.58;;
36009;SDS011;22076;52.182;5.404;2023-01-06T13:21:44;8.23;;;1.33;;
36009;SDS011;22076;52.182;5.404;2023-01-06T13:24:16;7.47;;;1.65;;
36009;SDS011;22076;52.182;5.404;2023-01-06T13:27:02;7.88;;;1.48;;
36009;SDS011;22076;52.182;5.404;2023-01-06T13:29:39;11.45;;;1.70;;
36009;SDS011;22076;52.182;5.404;2023-01-06T13:32:24;8.07;;;1.60;;
36009;SDS011;22076;52.182;5.404;2023-01-06T13:35:08;5.82;;;1.20;;
36009;SDS011;22076;52.182;5.404;2023-01-06T13:37:48;11.77;;;1.65;;
36009;SDS011;22076;52.182;5.404;2023-01-06T13:40:17;5.75;;;1.35;;
36009;SDS011;22076;52.182;5.404;2023-01-06T13:42:45;4.85;;;1.10;;
36009;SDS011;22076;52.182;5.404;2023-01-06T13:45:17;9.50;;;2.03;;
36009;SDS011;22076;52.182;5.404;2023-01-06T13:47:46;4.05;;;1.17;;
36009;SDS011;22076;52.182;5.404;2023-01-06T13:50:16;10.13;;;1.33;;
36009;SDS011;22076;52.182;5.404;2023-01-06T13:52:44;5.65;;;0.88;;
36009;SDS011;22076;52.182;5.404;2023-01-06T13:55:21;10.10;;;1.88;;
36009;SDS011;22076;52.182;5.404;2023-01-06T13:57:50;5.97;;;1.33;;
36009;SDS011;22076;52.182;5.404;2023-01-06T14:00:18;4.80;;;1.25;;
36009;SDS011;22076;52.182;5.404;2023-01-06T14:05:52;7.20;;;1.50;;
36009;SDS011;22076;52.182;5.404;2023-01-06T14:08:20;8.65;;;1.60;;
36009;SDS011;22076;52.182;5.404;2023-01-06T14:10:53;6.82;;;1.52;;
36009;SDS011;22076;52.182;5.404;2023-01-06T14:13:23;8.23;;;1.35;;
36009;SDS011;22076;52.182;5.404;2023-01-06T14:15:51;5.78;;;1.30;;
36009;SDS011;22076;52.182;5.404;2023-01-06T14:18:36;8.35;;;1.60;;
36009;SDS011;22076;52.182;5.404;2023-01-06T14:21:13;3.75;;;1.20;;
36009;SDS011;22076;52.182;5.404;2023-01-06T14:23:48;7.63;;;1.42;;
36009;SDS011;22076;52.182;5.404;2023-01-06T14:26:16;5.35;;;1.45;;
36009;SDS011;22076;52.182;5.404;2023-01-06T14:28:43;4.68;;;1.35;;
36009;SDS011;22076;52.182;5.404;2023-01-06T14:34:14;5.55;;;1.40;;
36009;SDS011;22076;52.182;5.404;2023-01-06T14:36:44;6.28;;;1.45;;
36009;SDS011;22076;52.182;5.404;2023-01-06T14:39:17;5.60;;;1.20;;
36009;SDS011;22076;52.182;5.404;2023-01-06T14:41:51;4.13;;;1.00;;
36009;SDS011;22076;52.182;5.404;2023-01-06T14:44:23;5.25;;;1.40;;
36009;SDS011;22076;52.182;5.404;2023-01-06T14:46:52;5.72;;;1.27;;
36009;SDS011;22076;52.182;5.404;2023-01-06T14:49:22;2.38;;;0.90;;
36009;SDS011;22076;52.182;5.404;2023-01-06T14:51:53;6.65;;;1.38;;
36009;SDS011;22076;52.182;5.404;2023-01-06T14:54:21;5.68;;;1.58;;
36009;SDS011;22076;52.182;5.404;2023-01-06T14:56:51;3.72;;;1.48;;
36009;SDS011;22076;52.182;5.404;2023-01-06T14:59:19;5.88;;;1.27;;
36009;SDS011;22076;52.182;5.404;2023-01-06T15:01:52;2.97;;;1.13;;
36009;SDS011;22076;52.182;5.404;2023-01-06T15:04:22;5.47;;;1.17;;
36009;SDS011;22076;52.182;5.404;2023-01-06T15:06:59;2.40;;;1.23;;
36009;SDS011;22076;52.182;5.404;2023-01-06T15:09:27;4.82;;;1.13;;
36009;SDS011;22076;52.182;5.404;2023-01-06T15:11:54;6.05;;;1.30;;
36009;SDS011;22076;52.182;5.404;2023-01-06T15:14:24;5.00;;;1.48;;
36009;SDS011;22076;52.182;5.404;2023-01-06T15:16:54;2.28;;;1.05;;
36009;SDS011;22076;52.182;5.404;2023-01-06T15:19:23;7.75;;;1.50;;
36009;SDS011;22076;52.182;5.404;2023-01-06T15:21:50;4.47;;;1.73;;
36009;SDS011;22076;52.182;5.404;2023-01-06T15:24:19;3.90;;;1.38;;